Houn Maru — JG5489 — position and weather

sailwx.info

Track history (hours):
 
Tides and Currents Weather Stations Pressure Air Temp Water Temp Dewpoint Dewpoint Depression Visibility Wind Speed Wind Dir Waves Ship Positions

Houn Maru

Last reported at 2014-Dec-22 07:33 UTC. Time now 2014-Dec-22 23:30 UTC.
Position N 34°37' E 134°57'.

Length 91 m; draft 4.7 m.

Type: Tanker. MMSI: 431101172.

Date/timePositionNaut miles runAvg speedWind from/ knotsBaromVisibWave heightAir tempDewpointWater temp
2014-Dec-22 07:33N 34°37' E 134°57'8 8.0
2014-Dec-22 06:33N 34°34' E 135°06'1110.7
2014-Dec-22 05:34N 34°24' E 135°11'3 1.1
2014-Dec-22 03:21N 34°25' E 135°14'0 0.0
2014-Dec-22 01:33N 34°25' E 135°14'0 0.1
2014-Dec-22 00:15N 34°25' E 135°14'2 2.1
2014-Dec-21 23:17N 34°23' E 135°13'0 0.0
2014-Dec-21 22:29N 34°23' E 135°13'0 0.0
2014-Dec-21 21:32N 34°23' E 135°13'0 0.0
2014-Dec-21 20:32N 34°23' E 135°13'0 0.0
2014-Dec-21 19:29N 34°23' E 135°13'0 0.0
2014-Dec-21 18:32N 34°23' E 135°13'0 0.0
2014-Dec-21 17:23N 34°23' E 135°13'0 0.1
2014-Dec-21 16:29N 34°23' E 135°13'0 0.0
2014-Dec-21 15:23N 34°23' E 135°13'0 0.0
2014-Dec-21 14:17N 34°23' E 135°13'0 0.1
2014-Dec-21 13:32N 34°23' E 135°13'2 1.8
2014-Dec-21 12:33N 34°24' E 135°11'1211.8
2014-Dec-21 11:33N 34°35' E 135°04'9 8.6
2014-Dec-21 10:31N 34°34' E 134°53'3 0.1
2014-Dec-20 07:21N 34°36' E 134°55'810.1
2014-Dec-20 06:33N 34°35' E 135°05'1111.0
2014-Dec-20 05:33N 34°25' E 135°10'3 0.6
2014-Dec-20 00:09N 34°25' E 135°14'2 2.3
2014-Dec-19 23:12N 34°23' E 135°13'0 0.1
2014-Dec-19 22:30N 34°23' E 135°13'0 0.0
2014-Dec-19 21:21N 34°23' E 135°13'0 0.1
2014-Dec-19 20:33N 34°23' E 135°13'0 0.0
2014-Dec-19 19:33N 34°23' E 135°13'0 0.0
2014-Dec-19 18:33N 34°23' E 135°13'0 0.0
2014-Dec-19 17:24N 34°23' E 135°13'0 0.0
2014-Dec-19 16:30N 34°23' E 135°13'0 0.0
2014-Dec-19 15:33N 34°23' E 135°13'0 0.0
2014-Dec-19 14:24N 34°23' E 135°13'4 4.7
2014-Dec-19 13:33N 34°26' E 135°09'1212.1
2014-Dec-19 12:33N 34°37' E 135°02'4 0.1
2014-Dec-18 07:31N 34°37' E 134°57'1010.3
2014-Dec-18 06:33N 34°32' E 135°07'9 9.4
2014-Dec-18 05:33N 34°24' E 135°14'1 0.2
2014-Dec-18 00:14N 34°25' E 135°14'2 3.2
2014-Dec-17 23:33N 34°23' E 135°13'0 0.1
2014-Dec-17 22:32N 34°23' E 135°13'0 0.0
2014-Dec-17 21:29N 34°23' E 135°13'0 0.0
2014-Dec-17 20:23N 34°23' E 135°13'0 0.0
2014-Dec-17 19:23N 34°23' E 135°13'0 0.0
2014-Dec-17 18:23N 34°23' E 135°13'0 0.0
2014-Dec-17 17:32N 34°23' E 135°13'0 0.0
2014-Dec-17 16:23N 34°23' E 135°13'0 0.0
2014-Dec-17 15:23N 34°23' E 135°13'0 0.0
2014-Dec-17 14:23N 34°23' E 135°13'0 0.0
2014-Dec-17 13:23N 34°23' E 135°13'0 0.0
2014-Dec-17 12:23N 34°23' E 135°13'0 0.0
2014-Dec-17 11:23N 34°23' E 135°13'0 0.0
2014-Dec-17 10:32N 34°23' E 135°13'0 0.0
2014-Dec-17 09:29N 34°23' E 135°13'0 0.0
2014-Dec-17 06:32N 34°23' E 135°13'0 0.0
2014-Dec-17 05:26N 34°23' E 135°13'0 0.0
2014-Dec-17 04:14N 34°23' E 135°13'0 0.0
2014-Dec-17 03:32N 34°23' E 135°13'0 0.0
2014-Dec-17 02:26N 34°23' E 135°13'0 0.0
2014-Dec-17 01:32N 34°23' E 135°13'0 0.0
2014-Dec-17 00:32N 34°23' E 135°13'0 0.0
2014-Dec-16 23:32N 34°23' E 135°13'0 0.0
2014-Dec-16 22:32N 34°23' E 135°13'0 0.0
2014-Dec-16 21:20N 34°23' E 135°13'0 0.0
2014-Dec-16 20:32N 34°23' E 135°13'0 0.0
2014-Dec-16 19:20N 34°23' E 135°13'0 0.0
2014-Dec-16 18:32N 34°23' E 135°13'0 0.0
2014-Dec-16 17:32N 34°23' E 135°13'0 0.0
2014-Dec-16 16:32N 34°23' E 135°13'0 0.0
2014-Dec-16 14:20N 34°23' E 135°13'2 2.5
2014-Dec-16 13:33N 34°24' E 135°11'1212.4
2014-Dec-16 12:34N 34°35' E 135°03'2 0.1
2014-Dec-15 06:33N 34°37' E 135°02'1212.3
2014-Dec-15 05:33N 34°26' E 135°10'4 0.7
2014-Dec-15 00:10N 34°25' E 135°14'2 2.9
2014-Dec-14 23:29N 34°23' E 135°13'0 0.0
2014-Dec-14 22:23N 34°23' E 135°13'0 0.0
2014-Dec-14 20:29N 34°23' E 135°13'0 0.0
2014-Dec-14 19:11N 34°23' E 135°13'0 0.0
2014-Dec-14 18:23N 34°23' E 135°13'0 0.0
2014-Dec-14 17:23N 34°23' E 135°13'0 0.0
2014-Dec-14 16:23N 34°23' E 135°13'0 0.0
2014-Dec-14 15:29N 34°23' E 135°13'0 0.1
2014-Dec-14 14:33N 34°23' E 135°13'1010.2
2014-Dec-14 13:33N 34°32' E 135°06'1510.8
2014-Dec-14 12:10N 34°33' E 134°48'5 0.1
2014-Dec-13 01:15N 34°35' E 134°53'811.3
2014-Dec-13 00:33N 34°37' E 135°02'1110.9
2014-Dec-12 23:33N 34°33' E 135°15'4 1.9
2014-Dec-12 21:28N 34°31' E 135°19'0 0.0
2014-Dec-12 20:28N 34°31' E 135°19'0 0.0
2014-Dec-12 19:16N 34°31' E 135°19'0 0.0
2014-Dec-12 18:28N 34°31' E 135°19'0 0.0
2014-Dec-12 17:28N 34°31' E 135°19'0 0.0
2014-Dec-12 16:28N 34°31' E 135°19'0 0.0
2014-Dec-12 15:22N 34°31' E 135°19'0 0.0
2014-Dec-12 14:28N 34°31' E 135°19'0 0.0
2014-Dec-12 13:28N 34°31' E 135°19'0 0.0
2014-Dec-12 12:28N 34°31' E 135°19'0 0.0
2014-Dec-12 11:22N 34°31' E 135°19'0 0.0
2014-Dec-12 10:16N 34°31' E 135°19'0 0.0
2014-Dec-12 09:28N 34°31' E 135°19'0 0.0
2014-Dec-12 08:22N 34°31' E 135°19'810.1
2014-Dec-12 07:33N 34°26' E 135°11'  
Track history (hours):
 
Tides and Currents Weather Stations Pressure Air Temp Water Temp Dewpoint Dewpoint Depression Visibility Wind Speed Wind Dir Waves Ship Positions

Houn Maru

Last reported at 2014-Dec-22 07:33 UTC. Time now 2014-Dec-22 23:30 UTC.
Position N 34°37' E 134°57'.

Length 91 m; draft 4.7 m.

Type: Tanker. MMSI: 431101172.

Date/timePositionNaut miles runAvg speedWind from/ knotsBaromVisibWave heightAir tempDewpointWater temp
2014-Dec-22 07:33N 34°37' E 134°57'8 8.0
2014-Dec-22 06:33N 34°34' E 135°06'1110.7
2014-Dec-22 05:34N 34°24' E 135°11'3 1.1
2014-Dec-22 03:21N 34°25' E 135°14'0 0.0
2014-Dec-22 01:33N 34°25' E 135°14'0 0.1
2014-Dec-22 00:15N 34°25' E 135°14'2 2.1
2014-Dec-21 23:17N 34°23' E 135°13'0 0.0
2014-Dec-21 22:29N 34°23' E 135°13'0 0.0
2014-Dec-21 21:32N 34°23' E 135°13'0 0.0
2014-Dec-21 20:32N 34°23' E 135°13'0 0.0
2014-Dec-21 19:29N 34°23' E 135°13'0 0.0
2014-Dec-21 18:32N 34°23' E 135°13'0 0.0
2014-Dec-21 17:23N 34°23' E 135°13'0 0.1
2014-Dec-21 16:29N 34°23' E 135°13'0 0.0
2014-Dec-21 15:23N 34°23' E 135°13'0 0.0
2014-Dec-21 14:17N 34°23' E 135°13'0 0.1
2014-Dec-21 13:32N 34°23' E 135°13'2 1.8
2014-Dec-21 12:33N 34°24' E 135°11'1211.8
2014-Dec-21 11:33N 34°35' E 135°04'9 8.6
2014-Dec-21 10:31N 34°34' E 134°53'3 0.1
2014-Dec-20 07:21N 34°36' E 134°55'810.1
2014-Dec-20 06:33N 34°35' E 135°05'1111.0
2014-Dec-20 05:33N 34°25' E 135°10'3 0.6
2014-Dec-20 00:09N 34°25' E 135°14'2 2.3
2014-Dec-19 23:12N 34°23' E 135°13'0 0.1
2014-Dec-19 22:30N 34°23' E 135°13'0 0.0
2014-Dec-19 21:21N 34°23' E 135°13'0 0.1
2014-Dec-19 20:33N 34°23' E 135°13'0 0.0
2014-Dec-19 19:33N 34°23' E 135°13'0 0.0
2014-Dec-19 18:33N 34°23' E 135°13'0 0.0
2014-Dec-19 17:24N 34°23' E 135°13'0 0.0
2014-Dec-19 16:30N 34°23' E 135°13'0 0.0
2014-Dec-19 15:33N 34°23' E 135°13'0 0.0
2014-Dec-19 14:24N 34°23' E 135°13'4 4.7
2014-Dec-19 13:33N 34°26' E 135°09'1212.1
2014-Dec-19 12:33N 34°37' E 135°02'4 0.1
2014-Dec-18 07:31N 34°37' E 134°57'1010.3
2014-Dec-18 06:33N 34°32' E 135°07'9 9.4
2014-Dec-18 05:33N 34°24' E 135°14'1 0.2
2014-Dec-18 00:14N 34°25' E 135°14'2 3.2
2014-Dec-17 23:33N 34°23' E 135°13'0 0.1
2014-Dec-17 22:32N 34°23' E 135°13'0 0.0
2014-Dec-17 21:29N 34°23' E 135°13'0 0.0
2014-Dec-17 20:23N 34°23' E 135°13'0 0.0
2014-Dec-17 19:23N 34°23' E 135°13'0 0.0
2014-Dec-17 18:23N 34°23' E 135°13'0 0.0
2014-Dec-17 17:32N 34°23' E 135°13'0 0.0
2014-Dec-17 16:23N 34°23' E 135°13'0 0.0
2014-Dec-17 15:23N 34°23' E 135°13'0 0.0
2014-Dec-17 14:23N 34°23' E 135°13'0 0.0
2014-Dec-17 13:23N 34°23' E 135°13'0 0.0
2014-Dec-17 12:23N 34°23' E 135°13'0 0.0
2014-Dec-17 11:23N 34°23' E 135°13'0 0.0
2014-Dec-17 10:32N 34°23' E 135°13'0 0.0
2014-Dec-17 09:29N 34°23' E 135°13'0 0.0
2014-Dec-17 06:32N 34°23' E 135°13'0 0.0
2014-Dec-17 05:26N 34°23' E 135°13'0 0.0
2014-Dec-17 04:14N 34°23' E 135°13'0 0.0
2014-Dec-17 03:32N 34°23' E 135°13'0 0.0
2014-Dec-17 02:26N 34°23' E 135°13'0 0.0
2014-Dec-17 01:32N 34°23' E 135°13'0 0.0
2014-Dec-17 00:32N 34°23' E 135°13'0 0.0
2014-Dec-16 23:32N 34°23' E 135°13'0 0.0
2014-Dec-16 22:32N 34°23' E 135°13'0 0.0
2014-Dec-16 21:20N 34°23' E 135°13'0 0.0
2014-Dec-16 20:32N 34°23' E 135°13'0 0.0
2014-Dec-16 19:20N 34°23' E 135°13'0 0.0
2014-Dec-16 18:32N 34°23' E 135°13'0 0.0
2014-Dec-16 17:32N 34°23' E 135°13'0 0.0
2014-Dec-16 16:32N 34°23' E 135°13'0 0.0
2014-Dec-16 14:20N 34°23' E 135°13'2 2.5
2014-Dec-16 13:33N 34°24' E 135°11'1212.4
2014-Dec-16 12:34N 34°35' E 135°03'2 0.1
2014-Dec-15 06:33N 34°37' E 135°02'1212.3
2014-Dec-15 05:33N 34°26' E 135°10'4 0.7
2014-Dec-15 00:10N 34°25' E 135°14'2 2.9
2014-Dec-14 23:29N 34°23' E 135°13'0 0.0
2014-Dec-14 22:23N 34°23' E 135°13'0 0.0
2014-Dec-14 20:29N 34°23' E 135°13'0 0.0
2014-Dec-14 19:11N 34°23' E 135°13'0 0.0
2014-Dec-14 18:23N 34°23' E 135°13'0 0.0
2014-Dec-14 17:23N 34°23' E 135°13'0 0.0
2014-Dec-14 16:23N 34°23' E 135°13'0 0.0
2014-Dec-14 15:29N 34°23' E 135°13'0 0.1
2014-Dec-14 14:33N 34°23' E 135°13'1010.2
2014-Dec-14 13:33N 34°32' E 135°06'1510.8
2014-Dec-14 12:10N 34°33' E 134°48'5 0.1
2014-Dec-13 01:15N 34°35' E 134°53'811.3
2014-Dec-13 00:33N 34°37' E 135°02'1110.9
2014-Dec-12 23:33N 34°33' E 135°15'4 1.9
2014-Dec-12 21:28N 34°31' E 135°19'0 0.0
2014-Dec-12 20:28N 34°31' E 135°19'0 0.0
2014-Dec-12 19:16N 34°31' E 135°19'0 0.0
2014-Dec-12 18:28N 34°31' E 135°19'0 0.0
2014-Dec-12 17:28N 34°31' E 135°19'0 0.0
2014-Dec-12 16:28N 34°31' E 135°19'0 0.0
2014-Dec-12 15:22N 34°31' E 135°19'0 0.0
2014-Dec-12 14:28N 34°31' E 135°19'0 0.0
2014-Dec-12 13:28N 34°31' E 135°19'0 0.0
2014-Dec-12 12:28N 34°31' E 135°19'0 0.0
2014-Dec-12 11:22N 34°31' E 135°19'0 0.0
2014-Dec-12 10:16N 34°31' E 135°19'0 0.0
2014-Dec-12 09:28N 34°31' E 135°19'0 0.0
2014-Dec-12 08:22N 34°31' E 135°19'810.1
2014-Dec-12 07:33N 34°26' E 135°11'  

Dump ship's entire track history